createdAt,value
2022-09-29T00:00:48.512Z,49.67
2022-09-29T00:01:48.762Z,47.86
2022-09-29T00:02:48.589Z,53.54
2022-09-29T00:03:48.464Z,52.04
2022-09-29T00:04:48.453Z,46.37
2022-09-29T00:05:48.432Z,53.77
2022-09-29T00:06:48.452Z,55.72
2022-09-29T00:07:48.436Z,53.33
2022-09-29T00:08:48.448Z,52.66
2022-09-29T00:09:48.383Z,48.67
2022-09-29T00:10:48.376Z,54.61
2022-09-29T00:11:48.426Z,58.13
2022-09-29T00:12:48.374Z,57.18
2022-09-29T00:13:48.330Z,51.90
2022-09-29T00:14:48.376Z,52.25
2022-09-29T00:15:48.321Z,51.53
2022-09-29T00:16:48.345Z,52.95
2022-09-29T00:18:12.181Z,49.39
2022-09-29T00:18:50.457Z,50.25
2022-09-29T00:19:48.177Z,48.33
2022-09-29T00:20:48.271Z,53.07
2022-09-29T00:21:48.280Z,50.72
2022-09-29T00:22:48.264Z,50.28
2022-09-29T00:23:48.259Z,50.56
2022-09-29T00:24:48.251Z,50.73
2022-09-29T00:25:48.227Z,53.69
2022-09-29T00:26:48.248Z,48.93
2022-09-29T00:27:48.173Z,47.01
2022-09-29T00:28:48.181Z,53.16
2022-09-29T00:29:48.204Z,51.08
2022-09-29T00:30:48.192Z,53.29
2022-09-29T00:31:48.305Z,54.67
2022-09-29T00:32:48.129Z,49.97
2022-09-29T00:33:48.148Z,53.90
2022-09-29T00:34:48.109Z,49.72
2022-09-29T00:35:48.136Z,53.99
2022-09-29T00:36:48.150Z,49.00
2022-09-29T00:37:48.153Z,51.97
2022-09-29T00:38:48.116Z,51.81
2022-09-29T00:39:48.073Z,50.69
2022-09-29T00:40:49.133Z,50.91
2022-09-29T00:41:48.082Z,49.73
2022-09-29T00:42:48.038Z,51.89
2022-09-29T00:43:48.054Z,50.77
2022-09-29T00:44:48.040Z,50.02
2022-09-29T00:45:48.054Z,47.22
2022-09-29T00:46:48.070Z,51.57
2022-09-29T00:47:48.017Z,48.56
2022-09-29T00:48:47.984Z,47.94
2022-09-29T00:49:47.969Z,51.32
2022-09-29T00:50:47.960Z,49.08
2022-09-29T00:51:47.961Z,49.40
2022-09-29T00:52:47.937Z,50.39
2022-09-29T00:53:47.958Z,46.86
2022-09-29T00:54:47.886Z,48.17
2022-09-29T00:55:47.910Z,46.58
2022-09-29T00:56:47.945Z,51.16
2022-09-29T00:57:47.889Z,47.37
2022-09-29T00:58:47.873Z,46.45
2022-09-29T00:59:47.835Z,49.23
2022-09-29T01:00:47.887Z,48.63
2022-09-29T01:01:47.954Z,50.56
2022-09-29T01:02:47.798Z,54.10
2022-09-29T01:03:47.801Z,53.20
2022-09-29T01:04:47.801Z,47.94
2022-09-29T01:05:47.788Z,50.40
2022-09-29T01:06:47.842Z,48.67
2022-09-29T01:07:47.776Z,50.92
2022-09-29T01:08:47.788Z,49.98
2022-09-29T01:09:47.716Z,52.23
2022-09-29T01:10:47.688Z,48.73
2022-09-29T01:11:47.833Z,45.32
2022-09-29T01:12:47.704Z,46.76
2022-09-29T01:13:47.699Z,53.12
2022-09-29T01:14:47.698Z,47.73
2022-09-29T01:15:47.704Z,52.40
2022-09-29T01:16:47.769Z,51.53
2022-09-29T01:17:47.628Z,55.46
2022-09-29T01:18:47.634Z,51.40
2022-09-29T01:19:47.646Z,56.54
2022-09-29T01:20:47.637Z,54.23
2022-09-29T01:21:47.643Z,52.94
2022-09-29T01:22:47.610Z,47.28
2022-09-29T01:23:47.640Z,49.85
2022-09-29T01:24:47.578Z,52.34
2022-09-29T01:25:47.542Z,53.59
2022-09-29T01:26:47.594Z,50.86
2022-09-29T01:27:47.579Z,51.96
2022-09-29T01:28:47.506Z,48.33
2022-09-29T01:29:47.528Z,53.44
2022-09-29T01:30:47.523Z,54.18
2022-09-29T01:31:47.611Z,55.15
2022-09-29T01:32:47.517Z,52.49
2022-09-29T01:33:47.495Z,50.75
2022-09-29T01:34:47.462Z,50.24
2022-09-29T01:35:47.454Z,50.87
2022-09-29T01:36:47.485Z,51.62
2022-09-29T01:37:47.382Z,49.72
2022-09-29T01:38:47.401Z,52.06
2022-09-29T01:39:47.441Z,48.80
2022-09-29T01:40:47.409Z,50.76
2022-09-29T01:41:47.478Z,52.67
2022-09-29T01:42:47.341Z,52.59
2022-09-29T01:43:47.350Z,49.12
2022-09-29T01:44:47.348Z,52.24
2022-09-29T01:45:47.427Z,54.96
2022-09-29T01:46:47.385Z,53.32
2022-09-29T01:47:47.317Z,54.55
2022-09-29T01:48:47.316Z,55.75
2022-09-29T01:49:47.335Z,53.12
2022-09-29T01:50:47.296Z,53.42
2022-09-29T01:51:47.318Z,54.25
2022-09-29T01:52:47.267Z,54.30
2022-09-29T01:53:47.314Z,51.84
2022-09-29T01:54:47.260Z,49.39
2022-09-29T01:55:47.201Z,55.78
2022-09-29T01:56:47.270Z,49.76
2022-09-29T01:57:47.202Z,50.44
2022-09-29T01:58:47.218Z,47.41
2022-09-29T01:59:47.277Z,53.67
2022-09-29T02:00:47.251Z,52.98
2022-09-29T02:01:47.266Z,53.07
2022-09-29T02:02:47.169Z,53.88
2022-09-29T02:03:47.157Z,50.97
2022-09-29T02:04:47.151Z,52.02
2022-09-29T02:05:47.154Z,46.75
2022-09-29T02:06:47.197Z,45.69
2022-09-29T02:07:47.109Z,47.80
2022-09-29T02:08:47.110Z,51.57
2022-09-29T02:09:47.075Z,51.01
2022-09-29T02:10:47.078Z,48.40
2022-09-29T02:11:47.139Z,46.47
2022-09-29T02:12:47.065Z,49.25
2022-09-29T02:13:47.029Z,46.78
2022-09-29T02:14:47.043Z,50.49
2022-09-29T02:15:47.104Z,57.69
2022-09-29T02:16:47.084Z,52.88
2022-09-29T02:17:46.995Z,51.12
2022-09-29T02:18:46.981Z,45.67
2022-09-29T02:19:46.998Z,53.37
2022-09-29T02:20:46.938Z,50.80
2022-09-29T02:21:47.007Z,49.56
2022-09-29T02:22:46.930Z,53.39
2022-09-29T02:23:46.940Z,49.78
2022-09-29T02:24:46.965Z,49.73
2022-09-29T02:25:46.907Z,50.21
2022-09-29T02:26:46.934Z,49.80
2022-09-29T02:27:46.891Z,50.81
2022-09-29T02:28:46.890Z,55.15
2022-09-29T02:29:46.888Z,57.72
2022-09-29T02:30:46.859Z,50.48
2022-09-29T02:31:46.973Z,46.02
2022-09-29T02:32:46.826Z,52.39
2022-09-29T02:33:46.833Z,51.43
2022-09-29T02:34:46.838Z,52.75
2022-09-29T02:35:46.830Z,48.30
2022-09-29T02:36:46.856Z,55.00
2022-09-29T02:37:46.802Z,49.66
2022-09-29T02:38:46.770Z,52.91
2022-09-29T02:39:46.758Z,50.98
2022-09-29T02:40:46.884Z,53.77
2022-09-29T02:41:47.778Z,49.24
2022-09-29T02:42:46.750Z,47.43
2022-09-29T02:43:46.856Z,48.17
2022-09-29T02:44:46.700Z,47.72
2022-09-29T02:45:46.709Z,47.69
2022-09-29T02:46:46.729Z,52.54
2022-09-29T02:47:46.668Z,48.89
2022-09-29T02:48:46.686Z,50.89
2022-09-29T02:49:46.667Z,50.27
2022-09-29T02:50:46.690Z,54.25
2022-09-29T02:51:46.687Z,47.83
2022-09-29T02:52:46.646Z,56.02
2022-09-29T02:53:46.620Z,50.78
2022-09-29T02:54:46.621Z,53.02
2022-09-29T02:55:46.598Z,48.80
2022-09-29T02:56:46.641Z,52.01
2022-09-29T02:57:46.588Z,52.83
2022-09-29T02:58:48.400Z,54.56
2022-09-29T02:59:47.544Z,50.98
2022-09-29T03:00:46.603Z,51.22
2022-09-29T03:01:46.584Z,52.76
2022-09-29T03:02:46.511Z,52.51
2022-09-29T03:03:46.599Z,51.51
2022-09-29T03:04:46.581Z,53.66
2022-09-29T03:05:46.486Z,51.91
2022-09-29T03:06:46.494Z,48.67
2022-09-29T03:07:46.561Z,51.38
2022-09-29T03:08:46.451Z,50.78
2022-09-29T03:09:46.436Z,53.04
2022-09-29T03:10:46.423Z,49.49
2022-09-29T03:11:46.494Z,52.97
2022-09-29T03:12:46.460Z,51.99
2022-09-29T03:13:46.434Z,51.77
2022-09-29T03:14:46.408Z,52.20
2022-09-29T03:15:46.379Z,53.32
2022-09-29T03:16:46.377Z,51.08
2022-09-29T03:17:46.417Z,54.08
2022-09-29T03:18:46.377Z,52.26
2022-09-29T03:19:46.340Z,55.03
2022-09-29T03:20:46.329Z,53.90
2022-09-29T03:21:46.333Z,51.68
2022-09-29T03:22:46.375Z,55.51
2022-09-29T03:23:46.354Z,57.07
2022-09-29T03:24:46.316Z,54.26
2022-09-29T03:25:46.293Z,55.00
2022-09-29T03:26:46.274Z,56.01
2022-09-29T03:27:46.335Z,55.25
2022-09-29T03:28:46.289Z,55.71
2022-09-29T03:29:46.244Z,58.66
2022-09-29T03:30:46.215Z,57.12
2022-09-29T03:31:46.248Z,56.26
2022-09-29T03:32:46.294Z,56.61
2022-09-29T03:33:46.190Z,57.56
2022-09-29T03:34:46.214Z,57.43
2022-09-29T03:35:46.200Z,57.06
2022-09-29T03:36:46.176Z,53.33
2022-09-29T03:37:46.195Z,55.53
2022-09-29T03:38:46.168Z,57.79
2022-09-29T03:39:46.107Z,56.81
2022-09-29T03:40:46.213Z,59.86
2022-09-29T03:41:46.130Z,56.20
2022-09-29T03:42:46.155Z,59.32
2022-09-29T03:43:46.100Z,56.55
2022-09-29T03:44:46.110Z,56.77
2022-09-29T03:45:46.155Z,59.06
2022-09-29T03:46:46.077Z,56.43
2022-09-29T03:47:46.100Z,55.43
2022-09-29T03:48:46.038Z,57.02
2022-09-29T03:49:46.051Z,56.25
2022-09-29T03:50:45.999Z,56.45
2022-09-29T03:51:46.013Z,56.57
2022-09-29T03:52:46.048Z,57.32
2022-09-29T03:53:46.020Z,57.88
2022-09-29T03:54:45.967Z,57.03
2022-09-29T03:55:45.975Z,60.90
2022-09-29T03:56:45.982Z,59.90
2022-09-29T03:57:46.035Z,57.12
2022-09-29T03:58:45.952Z,58.50
2022-09-29T03:59:46.032Z,56.27
2022-09-29T04:00:46.105Z,53.74
2022-09-29T04:01:45.992Z,56.49
2022-09-29T04:02:45.947Z,56.94
2022-09-29T04:03:45.904Z,56.75
2022-09-29T04:04:45.889Z,55.43
2022-09-29T04:05:45.869Z,54.47
2022-09-29T04:06:45.858Z,57.04
2022-09-29T04:07:45.886Z,55.94
2022-09-29T04:08:45.880Z,54.61
2022-09-29T04:09:45.793Z,55.15
2022-09-29T04:10:45.828Z,55.67
2022-09-29T04:11:45.809Z,55.01
2022-09-29T04:12:45.861Z,54.32
2022-09-29T04:13:45.792Z,56.56
2022-09-29T04:14:45.793Z,58.10
2022-09-29T04:15:45.775Z,53.93
2022-09-29T04:16:45.787Z,57.87
2022-09-29T04:17:45.803Z,58.73
2022-09-29T04:18:45.722Z,56.50
2022-09-29T04:19:45.753Z,55.57
2022-09-29T04:20:45.745Z,54.52
2022-09-29T04:21:45.726Z,58.13
2022-09-29T04:22:45.771Z,57.64
2022-09-29T04:23:45.725Z,57.31
2022-09-29T04:24:45.700Z,57.74
2022-09-29T04:25:45.679Z,59.21
2022-09-29T04:26:45.694Z,58.78
2022-09-29T04:27:45.710Z,59.30
2022-09-29T04:28:45.633Z,58.46
2022-09-29T04:29:45.626Z,59.88
2022-09-29T04:30:45.607Z,59.27
2022-09-29T04:31:45.717Z,58.43
2022-09-29T04:32:45.659Z,58.58
2022-09-29T04:33:45.585Z,59.55
2022-09-29T04:34:45.569Z,59.06
2022-09-29T04:35:45.546Z,59.86
2022-09-29T04:36:45.562Z,61.37
2022-09-29T04:37:45.584Z,59.62
2022-09-29T04:38:45.561Z,62.98
2022-09-29T04:39:45.499Z,60.73
2022-09-29T04:40:45.575Z,59.50
2022-09-29T04:41:45.494Z,60.91
2022-09-29T04:42:45.548Z,62.12
2022-09-29T04:43:45.492Z,61.85
2022-09-29T04:44:45.470Z,62.60
2022-09-29T04:45:45.466Z,61.78
2022-09-29T04:46:46.470Z,59.11
2022-09-29T04:47:45.491Z,60.68
2022-09-29T04:48:45.424Z,59.07
2022-09-29T04:49:45.412Z,57.86
2022-09-29T04:50:45.375Z,57.88
2022-09-29T04:51:45.413Z,61.00
2022-09-29T04:52:45.456Z,59.77
2022-09-29T04:53:45.396Z,60.11
2022-09-29T04:54:45.379Z,58.31
2022-09-29T04:55:45.381Z,60.24
2022-09-29T04:56:45.322Z,59.79
2022-09-29T04:57:45.394Z,59.75
2022-09-29T04:58:45.324Z,59.68
2022-09-29T04:59:45.314Z,58.64
2022-09-29T05:00:45.318Z,60.49
2022-09-29T05:01:45.332Z,60.85
2022-09-29T05:02:49.456Z,60.06
2022-09-29T05:03:46.259Z,60.37
2022-09-29T05:04:45.272Z,61.20
2022-09-29T05:05:45.372Z,57.72
2022-09-29T05:06:45.256Z,58.92
2022-09-29T05:07:45.279Z,62.81
2022-09-29T05:08:45.224Z,58.85
2022-09-29T05:09:45.214Z,58.24
2022-09-29T05:10:45.276Z,57.79
2022-09-29T05:11:45.301Z,58.23
2022-09-29T05:12:45.575Z,60.58
2022-09-29T05:13:45.166Z,60.70
2022-09-29T05:14:45.249Z,62.83
2022-09-29T05:15:45.213Z,61.12
2022-09-29T05:16:45.333Z,59.83
2022-09-29T05:17:45.265Z,60.63
2022-09-29T05:18:45.127Z,60.33
2022-09-29T05:19:45.112Z,57.30
2022-09-29T05:21:00.460Z,60.89
2022-09-29T05:21:47.198Z,61.51
2022-09-29T05:22:45.144Z,60.86
2022-09-29T05:23:45.047Z,59.95
2022-09-29T05:24:45.052Z,60.13
2022-09-29T05:25:45.048Z,62.24
2022-09-29T05:26:45.054Z,59.83
2022-09-29T05:27:45.102Z,58.04
